Time;durP1;ratioP1;P1;durP2;ratioP2;P2;SDS_P1;SDS_P2;PMS_P1;PMS_P2;Temp;Humidity;BMP_temperature;BMP_pressure;BME280_temperature;BME280_humidity;BME280_pressure;Samples;Min_cycle;Max_cycle;Signal;HPM_P1;HPM_P2
2021/07/30 00:00:29;;;;;;;5.23;2.50;;;;;24.10;100030.00;;;;2058106;28;20220;-64
2021/07/30 00:01:30;;;;;;;2.37;2.13;;;;;24.10;100031.00;;;;2058857;28;20247;-64
2021/07/30 00:02:30;;;;;;;3.30;2.50;;;;;24.10;100025.00;;;;2058978;28;20795;-64
2021/07/30 00:03:31;;;;;;;2.60;2.40;;;;;24.10;100028.00;;;;2059237;28;20219;-64
2021/07/30 00:04:31;;;;;;;3.13;2.23;;;;;24.10;100023.00;;;;2059410;28;20310;-64
2021/07/30 00:05:31;;;;;;;3.60;2.80;;;;;24.10;100025.00;;;;2058820;28;20222;-64
2021/07/30 00:06:32;;;;;;;2.60;2.20;;;;;24.10;100025.00;;;;2058194;28;20223;-64
2021/07/30 00:07:32;;;;;;;3.27;2.57;;;;;24.10;100023.00;;;;2058550;28;20230;-64
2021/07/30 00:08:32;;;;;;;2.50;2.30;;;;;24.10;100021.00;;;;2060950;28;20206;-64
2021/07/30 00:09:33;;;;;;;5.50;2.40;;;;;24.10;100027.00;;;;2060332;28;20246;-64
2021/07/30 00:10:33;;;;;;;2.47;2.20;;;;;24.10;100021.00;;;;2059058;28;20220;-64
2021/07/30 00:11:33;;;;;;;3.23;2.60;;;;;24.10;100020.00;;;;2059516;28;20262;-64
2021/07/30 00:12:34;;;;;;;2.50;2.30;;;;;24.10;100025.00;;;;2058442;28;20216;-64
2021/07/30 00:13:34;;;;;;;3.60;3.03;;;;;24.10;100025.00;;;;2059275;28;20222;-64
2021/07/30 00:14:34;;;;;;;2.90;2.43;;;;;24.10;100021.00;;;;2059146;28;20390;-64
2021/07/30 00:15:35;;;;;;;2.67;2.30;;;;;24.10;100024.00;;;;2058641;28;20211;-64
2021/07/30 00:16:35;;;;;;;2.23;2.03;;;;;24.10;100024.00;;;;2058078;28;20218;-64
2021/07/30 00:17:35;;;;;;;2.60;2.20;;;;;24.10;100020.00;;;;2058244;28;20315;-64
2021/07/30 00:18:36;;;;;;;3.23;2.30;;;;;24.10;100023.00;;;;2058716;28;20262;-64
2021/07/30 00:19:36;;;;;;;2.30;2.10;;;;;24.10;100023.00;;;;2058453;28;20657;-64
2021/07/30 00:20:36;;;;;;;3.20;2.50;;;;;24.10;100027.00;;;;2058780;28;20614;-64
2021/07/30 00:21:37;;;;;;;3.90;2.70;;;;;24.10;100021.00;;;;2059329;28;20633;-64
2021/07/30 00:22:37;;;;;;;3.03;2.47;;;;;24.10;100026.00;;;;2059555;28;20234;-64
2021/07/30 00:23:38;;;;;;;3.07;2.17;;;;;24.00;100018.00;;;;2058962;28;20215;-64
2021/07/30 00:24:38;;;;;;;2.73;2.40;;;;;24.10;100025.00;;;;2059471;28;20246;-64
2021/07/30 00:25:38;;;;;;;2.37;2.17;;;;;24.10;100017.00;;;;2059242;28;20275;-64
2021/07/30 00:26:38;;;;;;;2.70;2.10;;;;;24.10;100021.00;;;;2059908;28;20223;-64
2021/07/30 00:27:39;;;;;;;2.90;2.27;;;;;24.10;100032.00;;;;2058710;28;20246;-64
2021/07/30 00:28:39;;;;;;;2.50;2.30;;;;;24.10;100026.00;;;;2059017;28;20224;-64
2021/07/30 00:29:40;;;;;;;5.37;2.47;;;;;24.10;100029.00;;;;2061048;28;20211;-64
2021/07/30 00:30:40;;;;;;;4.27;2.70;;;;;24.10;100032.00;;;;2057997;28;20223;-64
2021/07/30 00:31:40;;;;;;;3.40;2.60;;;;;24.10;100029.00;;;;2058697;28;20211;-64
2021/07/30 00:32:41;;;;;;;3.00;2.80;;;;;24.10;100031.00;;;;2059256;28;20246;-64
2021/07/30 00:33:41;;;;;;;3.00;2.33;;;;;24.10;100029.00;;;;2059441;28;20221;-64
2021/07/30 00:34:41;;;;;;;2.37;2.17;;;;;24.10;100026.00;;;;2059465;28;20231;-64
2021/07/30 00:35:42;;;;;;;2.63;2.43;;;;;24.10;100025.00;;;;2059110;28;20222;-64
2021/07/30 00:36:42;;;;;;;4.43;2.13;;;;;24.10;100028.00;;;;2055611;28;20251;-65
2021/07/30 00:37:42;;;;;;;3.27;2.30;;;;;24.10;100027.00;;;;2059031;28;20298;-64
2021/07/30 00:38:43;;;;;;;2.80;2.20;;;;;24.00;100019.00;;;;2060982;28;20215;-64
2021/07/30 00:39:43;;;;;;;2.93;2.50;;;;;24.00;100027.00;;;;2059277;28;20250;-64
2021/07/30 00:40:43;;;;;;;3.50;2.47;;;;;24.00;100023.00;;;;2060541;28;20219;-64
2021/07/30 00:41:44;;;;;;;2.67;2.23;;;;;24.00;100020.00;;;;2059051;28;20223;-64
2021/07/30 00:42:50;;;;;;;3.07;2.77;;;;;24.00;100022.00;;;;2050709;28;20228;-64
2021/07/30 00:43:51;;;;;;;3.25;2.40;;;;;24.10;100023.00;;;;2050868;28;20303;-64
2021/07/30 00:44:51;;;;;;;2.93;2.40;;;;;24.00;100014.00;;;;2059326;28;21122;-64
2021/07/30 00:45:53;;;;;;;4.87;2.53;;;;;24.00;100012.00;;;;2059501;28;20212;-64
2021/07/30 00:46:54;;;;;;;2.88;2.28;;;;;24.00;100015.00;;;;2059041;28;20222;-64
2021/07/30 00:47:54;;;;;;;3.30;2.53;;;;;24.00;100013.00;;;;2059417;28;20215;-64
2021/07/30 00:48:55;;;;;;;2.50;2.20;;;;;24.10;100015.00;;;;2049932;28;20224;-65
2021/07/30 00:49:56;;;;;;;3.47;2.43;;;;;24.10;100014.00;;;;2040235;29;20267;-64
2021/07/30 00:50:56;;;;;;;3.38;2.45;;;;;24.10;100018.00;;;;2041538;29;20323;-64
2021/07/30 00:51:57;;;;;;;2.57;2.27;;;;;24.10;100011.00;;;;2049603;28;20247;-64
2021/07/30 00:52:57;;;;;;;2.53;2.33;;;;;24.00;100004.00;;;;2057963;28;20236;-64
2021/07/30 00:53:57;;;;;;;3.37;2.60;;;;;24.00;100008.00;;;;2041354;29;20418;-64
2021/07/30 00:54:57;;;;;;;4.80;2.60;;;;;24.00;100019.00;;;;2041298;29;20228;-64
2021/07/30 00:55:58;;;;;;;3.07;2.03;;;;;24.10;100021.00;;;;2058015;28;20234;-64
2021/07/30 00:56:58;;;;;;;4.10;2.80;;;;;24.00;100020.00;;;;2049488;28;20228;-63
2021/07/30 00:57:59;;;;;;;3.17;2.57;;;;;24.00;100012.00;;;;2049957;28;20228;-64
2021/07/30 00:58:59;;;;;;;2.93;2.30;;;;;24.00;100011.00;;;;2058927;28;20248;-65
2021/07/30 01:00:00;;;;;;;3.00;2.33;;;;;24.00;100020.00;;;;2049813;28;20243;-64
2021/07/30 01:01:00;;;;;;;2.50;2.30;;;;;24.00;100011.00;;;;2049655;28;20935;-64
2021/07/30 01:02:01;;;;;;;3.90;2.73;;;;;24.00;100011.00;;;;2039757;29;20280;-64
2021/07/30 01:03:01;;;;;;;2.57;2.30;;;;;24.00;100012.00;;;;2043901;29;20213;-64
2021/07/30 01:04:02;;;;;;;2.30;2.07;;;;;24.00;100011.00;;;;2044851;29;20217;-65
2021/07/30 01:05:04;;;;;;;2.53;2.28;;;;;24.00;100019.00;;;;2043210;28;20216;-64
2021/07/30 01:06:04;;;;;;;2.50;2.30;;;;;24.00;100019.00;;;;2059441;28;20708;-64
2021/07/30 01:07:04;;;;;;;2.80;2.47;;;;;24.00;100016.00;;;;2058549;28;20214;-64
2021/07/30 01:08:05;;;;;;;4.23;2.40;;;;;24.00;100019.00;;;;2058637;28;20248;-64
2021/07/30 01:09:05;;;;;;;4.07;2.67;;;;;24.00;100023.00;;;;2062632;28;20765;-64
2021/07/30 01:10:06;;;;;;;3.20;2.50;;;;;24.00;100024.00;;;;2059313;28;20222;-64
2021/07/30 01:11:06;;;;;;;2.60;2.40;;;;;24.00;100016.00;;;;2060276;28;20227;-64
2021/07/30 01:12:08;;;;;;;2.97;2.40;;;;;24.00;100015.00;;;;2058321;28;20220;-65
2021/07/30 01:13:09;;;;;;;2.60;2.40;;;;;24.00;100016.00;;;;2043618;29;20729;-64
2021/07/30 01:14:09;;;;;;;4.30;2.43;;;;;24.00;100013.00;;;;2043300;28;20220;-64
2021/07/30 01:15:10;;;;;;;2.83;2.30;;;;;24.00;100006.00;;;;2057329;28;20203;-64
2021/07/30 01:16:10;;;;;;;4.10;2.70;;;;;24.00;100013.00;;;;2059412;28;20225;-64
2021/07/30 01:17:11;;;;;;;3.40;2.43;;;;;24.00;100007.00;;;;2059283;28;20208;-64
2021/07/30 01:18:11;;;;;;;3.73;2.43;;;;;24.00;100013.00;;;;2063472;28;20206;-64
2021/07/30 01:19:21;;;;;;;3.17;2.87;;;;;24.00;100014.00;;;;2067417;28;20561;-64
2021/07/30 01:20:22;;;;;;;4.50;2.15;;;;;24.00;100003.00;;;;2050469;28;20661;-64
2021/07/30 01:21:29;;;;;;;2.65;2.45;;;;;24.00;100003.00;;;;2052441;28;20220;-64
2021/07/30 01:22:56;;;;;;;2.90;2.60;;;;;24.00;100008.00;;;;2060249;28;20234;-64
2021/07/30 01:23:58;;;;;;;3.08;2.22;;;;;23.90;100012.00;;;;2052663;28;20627;-64
2021/07/30 01:24:58;;;;;;;3.10;2.80;;;;;24.00;100005.00;;;;2059847;28;20219;-64
2021/07/30 01:25:58;;;;;;;2.53;2.33;;;;;24.00;100008.00;;;;2059764;28;20203;-64
2021/07/30 01:26:59;;;;;;;2.83;2.43;;;;;24.00;100004.00;;;;2059622;28;20582;-64
2021/07/30 01:27:59;;;;;;;3.10;2.53;;;;;24.00;100006.00;;;;2059874;28;20594;-64
2021/07/30 01:28:59;;;;;;;2.57;2.00;;;;;24.00;100007.00;;;;2059854;28;20570;-64
2021/07/30 01:30:00;;;;;;;3.23;2.07;;;;;24.00;100004.00;;;;2059671;28;20637;-64
2021/07/30 01:31:01;;;;;;;3.00;2.70;;;;;24.00;100004.00;;;;2059179;28;20225;-65
2021/07/30 01:32:01;;;;;;;3.00;2.58;;;;;24.00;100008.00;;;;2059591;28;20207;-65
2021/07/30 01:33:01;;;;;;;2.50;2.30;;;;;24.00;100001.00;;;;2059797;28;20574;-64
2021/07/30 01:34:02;;;;;;;2.70;2.40;;;;;24.00;100008.00;;;;2060510;28;20277;-64
2021/07/30 01:35:03;;;;;;;4.00;2.37;;;;;24.00;100011.00;;;;2060478;28;20220;-64
2021/07/30 01:36:03;;;;;;;3.85;2.60;;;;;24.00;100004.00;;;;2060352;28;20226;-64
2021/07/30 01:37:04;;;;;;;3.67;2.50;;;;;24.00;100012.00;;;;2060025;28;20231;-64
2021/07/30 01:38:04;;;;;;;2.50;2.27;;;;;24.00;100004.00;;;;2059085;28;20222;-64
2021/07/30 01:39:04;;;;;;;4.70;2.60;;;;;24.00;100001.00;;;;2062537;28;20279;-64
2021/07/30 01:40:05;;;;;;;3.30;2.77;;;;;24.00;100000.00;;;;2062777;28;20226;-64
2021/07/30 01:41:11;;;;;;;2.73;2.43;;;;;24.00;100006.00;;;;2061122;28;20684;-64
2021/07/30 01:42:12;;;;;;;3.22;2.60;;;;;24.00;100008.00;;;;2056577;28;20550;-64
2021/07/30 01:43:12;;;;;;;2.50;2.30;;;;;24.00;100005.00;;;;2060361;28;20262;-65
2021/07/30 01:44:14;;;;;;;3.90;2.53;;;;;24.00;100005.00;;;;2059937;28;20283;-64
2021/07/30 01:45:14;;;;;;;4.22;2.40;;;;;24.00;99995.00;;;;2059777;28;20215;-64
2021/07/30 01:46:15;;;;;;;3.87;2.47;;;;;24.00;99995.00;;;;2058702;28;20217;-64
2021/07/30 01:47:15;;;;;;;6.90;2.50;;;;;24.00;100003.00;;;;2051103;28;20219;-64
2021/07/30 01:48:15;;;;;;;3.70;2.70;;;;;24.00;99997.00;;;;2044523;28;20781;-64
2021/07/30 01:49:16;;;;;;;3.70;2.63;;;;;24.00;99995.00;;;;2060026;28;20218;-64
2021/07/30 01:50:16;;;;;;;3.10;2.30;;;;;24.00;100001.00;;;;2058947;28;20218;-64
2021/07/30 01:51:16;;;;;;;3.73;2.67;;;;;24.00;100002.00;;;;2059139;28;20238;-64
2021/07/30 01:52:17;;;;;;;4.93;2.50;;;;;24.00;99991.00;;;;2058597;28;20318;-64
2021/07/30 01:53:17;;;;;;;3.40;2.87;;;;;24.00;99993.00;;;;2059487;28;20200;-64
2021/07/30 01:54:18;;;;;;;2.90;2.60;;;;;24.00;100000.00;;;;2059543;28;20892;-64
2021/07/30 01:55:18;;;;;;;5.63;2.40;;;;;24.00;99999.00;;;;2058433;28;20728;-64
2021/07/30 01:56:19;;;;;;;5.17;2.93;;;;;24.00;99988.00;;;;2058372;28;20242;-64
2021/07/30 01:57:19;;;;;;;5.13;2.57;;;;;24.00;99988.00;;;;2060195;28;20219;-64
2021/07/30 01:58:19;;;;;;;2.47;2.27;;;;;24.00;99986.00;;;;2059393;28;20581;-64
2021/07/30 01:59:20;;;;;;;5.90;2.50;;;;;24.00;99994.00;;;;2059554;28;20210;-64
2021/07/30 02:00:20;;;;;;;3.53;2.50;;;;;24.00;99991.00;;;;2058964;28;20258;-64
2021/07/30 02:01:20;;;;;;;2.70;2.50;;;;;24.00;99996.00;;;;2059509;28;20207;-64
2021/07/30 02:02:21;;;;;;;3.00;2.70;;;;;24.00;99990.00;;;;2059458;28;20276;-64
2021/07/30 02:03:21;;;;;;;3.47;2.47;;;;;24.00;99993.00;;;;2059219;28;20255;-64
2021/07/30 02:04:22;;;;;;;2.93;2.50;;;;;24.00;99996.00;;;;2059434;28;20221;-64
2021/07/30 02:05:23;;;;;;;4.13;2.60;;;;;24.00;99988.00;;;;2059522;28;20211;-64
2021/07/30 02:06:23;;;;;;;3.25;2.63;;;;;24.00;99990.00;;;;2059343;28;20216;-64
2021/07/30 02:07:24;;;;;;;3.20;2.37;;;;;24.00;99989.00;;;;2059167;28;20289;-64
2021/07/30 02:08:24;;;;;;;3.53;2.47;;;;;24.00;99992.00;;;;2060793;28;20214;-64
2021/07/30 02:09:25;;;;;;;3.23;2.70;;;;;24.00;99995.00;;;;2061021;28;20212;-64
2021/07/30 02:10:25;;;;;;;4.50;2.70;;;;;24.00;99993.00;;;;2059117;28;20765;-64
2021/07/30 02:11:25;;;;;;;2.33;2.10;;;;;24.00;99994.00;;;;2063037;28;20246;-64
2021/07/30 02:12:26;;;;;;;2.67;2.40;;;;;24.00;99986.00;;;;2059221;28;20335;-64
2021/07/30 02:14:44;;;;;;;3.53;3.20;;;;;24.00;99988.00;;;;2059334;28;20218;-64
2021/07/30 02:15:45;;;;;;;3.90;2.40;;;;;24.00;99990.00;;;;2059227;28;20223;-64
2021/07/30 02:16:46;;;;;;;2.93;2.63;;;;;24.00;99984.00;;;;2059336;28;20301;-64
2021/07/30 02:17:46;;;;;;;4.97;2.95;;;;;24.00;99984.00;;;;2060005;28;20234;-64
2021/07/30 02:18:47;;;;;;;2.40;2.20;;;;;24.00;99980.00;;;;2060104;28;20590;-64
2021/07/30 02:19:48;;;;;;;3.03;2.55;;;;;24.00;99984.00;;;;2059938;28;20648;-64
2021/07/30 02:20:48;;;;;;;3.17;2.30;;;;;24.00;99985.00;;;;2059473;28;20233;-64
2021/07/30 02:21:49;;;;;;;3.17;2.67;;;;;24.00;99987.00;;;;2059248;28;20234;-64
2021/07/30 02:22:50;;;;;;;3.88;2.40;;;;;24.00;99989.00;;;;2059257;28;20694;-64
2021/07/30 02:23:50;;;;;;;3.03;2.77;;;;;24.00;99979.00;;;;2059243;28;20224;-64
2021/07/30 02:24:50;;;;;;;3.57;2.50;;;;;24.00;99975.00;;;;2059097;28;20216;-64
2021/07/30 02:25:51;;;;;;;3.60;2.60;;;;;24.00;99977.00;;;;2059938;28;20254;-64
2021/07/30 02:26:53;;;;;;;3.20;2.73;;;;;24.00;99976.00;;;;2060014;28;20223;-64
2021/07/30 02:27:53;;;;;;;2.85;2.53;;;;;24.00;99977.00;;;;2059554;28;20591;-64
2021/07/30 02:28:54;;;;;;;3.63;2.30;;;;;24.00;99978.00;;;;2060111;28;20223;-64
2021/07/30 02:29:55;;;;;;;3.20;2.60;;;;;24.00;99970.00;;;;2058980;28;20636;-64
2021/07/30 02:30:55;;;;;;;4.07;2.30;;;;;24.00;99977.00;;;;2058265;28;20211;-64
2021/07/30 02:31:55;;;;;;;3.13;2.30;;;;;24.00;99977.00;;;;2061728;28;20358;-64
2021/07/30 02:32:56;;;;;;;3.93;2.70;;;;;24.00;99976.00;;;;2060021;28;20215;-64
2021/07/30 02:33:56;;;;;;;2.80;2.60;;;;;24.00;99972.00;;;;2059561;28;20222;-64
2021/07/30 02:34:56;;;;;;;3.20;2.40;;;;;24.00;99970.00;;;;2059029;28;20284;-64
2021/07/30 02:35:57;;;;;;;2.73;2.30;;;;;24.00;99970.00;;;;2058718;28;20230;-64
2021/07/30 02:36:57;;;;;;;4.00;2.33;;;;;24.00;99975.00;;;;2058632;28;20244;-64
2021/07/30 02:37:57;;;;;;;2.80;2.60;;;;;24.00;99971.00;;;;2062740;28;20768;-64
2021/07/30 02:38:58;;;;;;;3.10;1.90;;;;;24.00;99964.00;;;;2061342;28;20218;-64
2021/07/30 02:39:58;;;;;;;3.10;2.50;;;;;24.00;99968.00;;;;2063457;28;20265;-64
2021/07/30 02:40:58;;;;;;;3.43;2.40;;;;;24.00;99973.00;;;;2060408;28;20215;-64
2021/07/30 02:41:59;;;;;;;3.30;2.33;;;;;24.00;99978.00;;;;2059817;28;20269;-64
2021/07/30 02:42:59;;;;;;;2.73;2.53;;;;;24.00;99976.00;;;;2059067;28;20293;-64
2021/07/30 02:43:59;;;;;;;2.80;2.50;;;;;24.00;99972.00;;;;2042566;29;20288;-64
2021/07/30 02:45:00;;;;;;;3.70;2.73;;;;;24.00;99978.00;;;;2042697;29;20266;-64
2021/07/30 02:46:00;;;;;;;2.63;2.40;;;;;24.00;99971.00;;;;2058936;28;20223;-64
2021/07/30 02:47:00;;;;;;;3.00;2.40;;;;;24.00;99972.00;;;;2059283;28;20223;-64
2021/07/30 02:48:01;;;;;;;3.57;2.30;;;;;24.00;99976.00;;;;2059728;28;20220;-64
2021/07/30 02:49:01;;;;;;;2.93;2.63;;;;;24.00;99979.00;;;;2059889;28;20242;-64
2021/07/30 02:50:03;;;;;;;2.20;2.00;;;;;24.00;99966.00;;;;2059831;28;20227;-64
2021/07/30 02:51:03;;;;;;;3.20;2.40;;;;;24.00;99974.00;;;;2059020;28;20326;-64
2021/07/30 02:52:04;;;;;;;3.23;2.50;;;;;24.00;99965.00;;;;2059125;28;20261;-64
2021/07/30 02:53:04;;;;;;;3.37;2.33;;;;;24.00;99968.00;;;;2050121;28;20231;-64
2021/07/30 02:54:05;;;;;;;3.17;2.87;;;;;24.00;99966.00;;;;2050518;28;20608;-64
2021/07/30 02:55:05;;;;;;;3.60;2.40;;;;;24.00;99968.00;;;;2059131;28;20211;-64
2021/07/30 02:56:06;;;;;;;3.50;2.50;;;;;24.00;99971.00;;;;2062663;28;20235;-64
2021/07/30 02:57:07;;;;;;;5.13;2.80;;;;;24.00;99969.00;;;;2060735;28;20462;-64
2021/07/30 02:58:07;;;;;;;4.00;2.60;;;;;24.00;99960.00;;;;2059623;28;20225;-64
2021/07/30 02:59:07;;;;;;;3.20;2.30;;;;;24.00;99967.00;;;;2056368;28;20215;-64
2021/07/30 03:00:08;;;;;;;3.10;2.40;;;;;24.00;99962.00;;;;2059651;28;20564;-64
2021/07/30 03:01:08;;;;;;;3.57;2.60;;;;;24.00;99960.00;;;;2059211;28;20213;-64
2021/07/30 03:02:09;;;;;;;3.63;2.40;;;;;24.00;99964.00;;;;2059816;28;20213;-64
2021/07/30 03:03:09;;;;;;;4.70;2.47;;;;;24.00;99964.00;;;;2059887;28;20220;-64
2021/07/30 03:04:09;;;;;;;3.53;2.50;;;;;24.00;99964.00;;;;2059187;28;20219;-64
2021/07/30 03:05:10;;;;;;;2.50;2.30;;;;;24.00;99962.00;;;;2061181;28;20215;-64
2021/07/30 03:06:10;;;;;;;2.37;2.17;;;;;24.00;99963.00;;;;2057488;28;20215;-64
2021/07/30 03:07:10;;;;;;;4.60;2.90;;;;;24.00;99962.00;;;;2060361;28;20219;-64
2021/07/30 03:08:11;;;;;;;3.73;2.53;;;;;24.00;99960.00;;;;2058458;28;20216;-64
2021/07/30 03:09:11;;;;;;;4.23;2.73;;;;;24.00;99959.00;;;;2061860;28;20215;-64
2021/07/30 03:10:11;;;;;;;2.80;2.40;;;;;24.00;99962.00;;;;2060507;28;20353;-64
2021/07/30 03:11:12;;;;;;;2.80;2.50;;;;;24.00;99961.00;;;;2062221;28;20245;-64
2021/07/30 03:12:12;;;;;;;3.17;2.47;;;;;24.00;99972.00;;;;2059759;28;20215;-64
2021/07/30 03:13:12;;;;;;;2.87;2.23;;;;;24.00;99965.00;;;;2058354;28;20230;-64
2021/07/30 03:14:13;;;;;;;2.77;2.47;;;;;24.00;99958.00;;;;2058733;28;20227;-64
2021/07/30 03:15:13;;;;;;;4.10;2.83;;;;;24.00;99960.00;;;;2058920;28;20221;-64
2021/07/30 03:16:13;;;;;;;2.90;2.30;;;;;24.00;99962.00;;;;2058935;28;20255;-64
2021/07/30 03:17:14;;;;;;;3.90;2.63;;;;;24.00;99962.00;;;;2059248;28;20714;-64
2021/07/30 03:18:14;;;;;;;2.90;2.40;;;;;24.00;99960.00;;;;2059578;28;20219;-64
2021/07/30 03:19:14;;;;;;;2.60;2.40;;;;;23.90;99957.00;;;;2059731;28;20222;-64
2021/07/30 03:20:15;;;;;;;3.00;2.20;;;;;24.00;99957.00;;;;2059052;28;20214;-64
2021/07/30 03:21:15;;;;;;;3.90;2.30;;;;;24.00;99961.00;;;;2059445;28;20256;-64
2021/07/30 03:22:15;;;;;;;3.43;2.60;;;;;23.90;99957.00;;;;2058606;28;20640;-64
2021/07/30 03:23:16;;;;;;;2.63;2.43;;;;;23.90;99957.00;;;;2058731;28;20624;-64
2021/07/30 03:24:16;;;;;;;2.30;2.10;;;;;23.90;99962.00;;;;2058383;28;20815;-64
2021/07/30 03:25:16;;;;;;;4.07;2.50;;;;;23.90;99961.00;;;;2058405;28;20215;-64
2021/07/30 03:26:17;;;;;;;4.43;2.37;;;;;23.90;99960.00;;;;2057271;28;20219;-64
2021/07/30 03:27:17;;;;;;;2.30;2.10;;;;;23.90;99962.00;;;;2058945;28;20223;-64
2021/07/30 03:28:17;;;;;;;3.07;2.40;;;;;23.90;99956.00;;;;2058767;28;20245;-64
2021/07/30 03:29:18;;;;;;;3.00;2.67;;;;;23.90;99954.00;;;;2058887;28;20224;-64
2021/07/30 03:30:18;;;;;;;3.87;2.23;;;;;23.90;99956.00;;;;2058777;28;20247;-64
2021/07/30 03:31:18;;;;;;;2.80;2.23;;;;;23.90;99951.00;;;;2059557;28;20224;-64
2021/07/30 03:32:19;;;;;;;2.90;2.43;;;;;23.90;99952.00;;;;2059545;28;20223;-64
2021/07/30 03:33:19;;;;;;;2.50;2.07;;;;;24.00;99947.00;;;;2059712;28;20276;-64
2021/07/30 03:34:19;;;;;;;4.13;2.50;;;;;23.90;99942.00;;;;2059344;28;20222;-64
2021/07/30 03:35:20;;;;;;;3.60;2.70;;;;;23.90;99936.00;;;;2058781;28;20211;-64
2021/07/30 03:36:20;;;;;;;2.70;2.20;;;;;23.90;99947.00;;;;2058751;28;20674;-64
2021/07/30 03:37:20;;;;;;;2.53;2.30;;;;;23.90;99950.00;;;;2057798;28;20301;-64
2021/07/30 03:38:21;;;;;;;2.60;2.40;;;;;23.90;99943.00;;;;2059326;28;20265;-64
2021/07/30 03:39:21;;;;;;;3.03;2.30;;;;;23.90;99940.00;;;;2061555;28;20391;-64
2021/07/30 03:40:22;;;;;;;4.13;2.33;;;;;23.90;99941.00;;;;2059590;28;20219;-64
2021/07/30 03:41:22;;;;;;;4.10;2.57;;;;;23.90;99943.00;;;;2059416;28;20218;-64
2021/07/30 03:42:22;;;;;;;4.17;3.00;;;;;23.90;99938.00;;;;2058764;28;21991;-64
2021/07/30 03:43:23;;;;;;;4.03;2.50;;;;;23.90;99941.00;;;;2059240;28;20246;-65
2021/07/30 03:44:23;;;;;;;3.10;2.57;;;;;23.90;99944.00;;;;2059501;28;20240;-64
2021/07/30 03:45:23;;;;;;;2.73;2.33;;;;;24.00;99939.00;;;;2059696;28;20228;-64
2021/07/30 03:46:24;;;;;;;4.80;2.93;;;;;23.90;99944.00;;;;2059488;28;20230;-64
2021/07/30 03:47:24;;;;;;;3.63;2.40;;;;;23.90;99934.00;;;;2057239;28;20257;-64
2021/07/30 03:48:24;;;;;;;3.27;2.33;;;;;23.90;99933.00;;;;2058843;28;20226;-64
2021/07/30 03:49:24;;;;;;;2.40;2.20;;;;;23.90;99937.00;;;;2058708;28;20223;-64
2021/07/30 03:50:25;;;;;;;3.10;2.80;;;;;23.90;99936.00;;;;2058234;28;20282;-64
2021/07/30 03:51:25;;;;;;;3.77;2.67;;;;;23.90;99928.00;;;;2058678;28;20234;-64
2021/07/30 03:52:25;;;;;;;3.73;2.90;;;;;23.90;99940.00;;;;2059060;28;20227;-64
2021/07/30 03:53:26;;;;;;;2.57;2.27;;;;;23.90;99945.00;;;;2058827;28;20678;-64
2021/07/30 03:54:26;;;;;;;2.90;2.33;;;;;23.90;99944.00;;;;2059069;28;20686;-64
2021/07/30 03:55:26;;;;;;;5.17;2.90;;;;;23.90;99945.00;;;;2057948;28;20674;-64
2021/07/30 03:56:27;;;;;;;4.07;2.37;;;;;23.90;99946.00;;;;2058903;28;20717;-64
2021/07/30 03:57:27;;;;;;;5.17;2.60;;;;;23.90;99948.00;;;;2058798;28;20246;-64
2021/07/30 03:58:27;;;;;;;3.40;2.60;;;;;23.90;99947.00;;;;2058546;28;20221;-64
2021/07/30 03:59:28;;;;;;;3.77;2.53;;;;;23.90;99949.00;;;;2058642;28;20226;-64
2021/07/30 04:00:28;;;;;;;3.00;2.70;;;;;23.90;99949.00;;;;2057978;28;20239;-64
2021/07/30 04:01:28;;;;;;;3.00;2.23;;;;;23.80;99937.00;;;;2059595;28;20207;-64
2021/07/30 04:02:29;;;;;;;4.30;2.60;;;;;23.90;99941.00;;;;2059426;28;20227;-64
2021/07/30 04:03:29;;;;;;;2.60;2.40;;;;;23.90;99939.00;;;;2059598;28;20273;-63
2021/07/30 04:04:29;;;;;;;2.63;2.43;;;;;23.90;99944.00;;;;2059428;28;20215;-65
2021/07/30 04:05:30;;;;;;;3.23;2.60;;;;;23.90;99938.00;;;;2059237;28;20246;-64
2021/07/30 04:06:30;;;;;;;2.53;2.33;;;;;23.90;99941.00;;;;2057313;28;20227;-65
2021/07/30 04:07:30;;;;;;;3.63;2.40;;;;;23.90;99944.00;;;;2059401;28;20262;-64
2021/07/30 04:08:34;;;;;;;3.10;2.23;;;;;23.90;99931.00;;;;2059166;28;20237;-65
2021/07/30 04:09:34;;;;;;;3.65;2.50;;;;;23.90;99935.00;;;;2059144;28;20219;-64
2021/07/30 04:10:34;;;;;;;3.87;2.60;;;;;23.90;99938.00;;;;2061493;28;20214;-65
2021/07/30 04:11:35;;;;;;;4.63;2.60;;;;;23.90;99932.00;;;;2060725;28;20226;-64
2021/07/30 04:12:35;;;;;;;2.80;2.10;;;;;23.90;99935.00;;;;2058417;28;20210;-64
2021/07/30 04:13:35;;;;;;;2.63;2.43;;;;;23.90;99933.00;;;;2058959;28;20270;-64
2021/07/30 04:14:36;;;;;;;2.43;2.23;;;;;23.90;99940.00;;;;2056272;28;20239;-64
2021/07/30 04:15:36;;;;;;;3.00;2.57;;;;;23.90;99929.00;;;;2059444;28;20219;-64
2021/07/30 04:16:38;;;;;;;2.80;2.50;;;;;23.90;99940.00;;;;2059433;28;20682;-64
2021/07/30 04:17:38;;;;;;;3.92;2.50;;;;;23.90;99929.00;;;;2059151;28;20202;-64
2021/07/30 04:18:39;;;;;;;2.73;2.20;;;;;23.90;99920.00;;;;2058308;28;20265;-64
2021/07/30 04:19:43;;;;;;;2.63;2.43;;;;;23.90;99928.00;;;;2058669;28;20214;-64
2021/07/30 04:20:44;;;;;;;3.28;2.55;;;;;23.90;99930.00;;;;2057610;28;20286;-64
2021/07/30 04:21:44;;;;;;;3.67;2.40;;;;;23.90;99925.00;;;;2058967;28;20219;-65
2021/07/30 04:22:44;;;;;;;3.57;2.40;;;;;23.90;99930.00;;;;2061302;28;20219;-64
2021/07/30 04:23:45;;;;;;;2.77;2.10;;;;;23.90;99918.00;;;;2058673;28;20215;-64
2021/07/30 04:24:45;;;;;;;3.30;2.43;;;;;23.90;99925.00;;;;2058651;28;20721;-64
2021/07/30 04:25:45;;;;;;;3.20;2.60;;;;;23.90;99918.00;;;;2058796;28;20678;-64
2021/07/30 04:26:46;;;;;;;2.93;2.60;;;;;23.90;99930.00;;;;2050713;28;20996;-64
2021/07/30 04:27:46;;;;;;;2.63;2.43;;;;;23.90;99913.00;;;;2042841;29;20723;-64
2021/07/30 04:28:46;;;;;;;5.87;2.63;;;;;23.90;99920.00;;;;2050709;28;20301;-64
2021/07/30 04:29:47;;;;;;;3.00;2.00;;;;;23.90;99925.00;;;;2059301;28;20214;-64
2021/07/30 04:30:47;;;;;;;4.43;2.67;;;;;23.90;99926.00;;;;2057792;28;20217;-64
2021/07/30 04:31:47;;;;;;;3.97;2.30;;;;;23.90;99925.00;;;;2060288;28;20218;-64
2021/07/30 04:32:48;;;;;;;3.27;2.40;;;;;23.90;99924.00;;;;2059179;28;20203;-64
2021/07/30 04:33:48;;;;;;;2.63;2.40;;;;;23.90;99927.00;;;;2059398;28;20206;-64
2021/07/30 04:34:48;;;;;;;3.00;2.20;;;;;23.90;99928.00;;;;2058587;28;20206;-64
2021/07/30 04:35:49;;;;;;;2.60;2.40;;;;;23.90;99927.00;;;;2060464;28;20675;-64
2021/07/30 04:36:49;;;;;;;3.70;2.30;;;;;23.90;99930.00;;;;2060749;28;20226;-64
2021/07/30 04:37:49;;;;;;;3.00;2.30;;;;;23.90;99925.00;;;;2060828;28;20235;-64
2021/07/30 04:38:50;;;;;;;3.50;2.43;;;;;23.90;99928.00;;;;2061533;28;20218;-65
2021/07/30 04:39:50;;;;;;;2.53;2.33;;;;;23.90;99929.00;;;;2061931;28;20207;-64
2021/07/30 04:40:50;;;;;;;2.43;2.23;;;;;23.90;99925.00;;;;2060494;28;20247;-64
2021/07/30 04:41:51;;;;;;;3.50;2.33;;;;;23.90;99929.00;;;;2060883;28;20254;-64
2021/07/30 04:42:51;;;;;;;3.10;2.37;;;;;23.90;99930.00;;;;2060798;28;20258;-64
2021/07/30 04:43:51;;;;;;;2.80;2.30;;;;;23.90;99933.00;;;;2051381;28;20226;-64
2021/07/30 04:44:51;;;;;;;4.23;2.70;;;;;23.90;99934.00;;;;2051517;28;20216;-64
2021/07/30 04:45:52;;;;;;;2.90;2.60;;;;;23.90;99939.00;;;;2060106;28;20213;-64
2021/07/30 04:46:52;;;;;;;3.57;2.50;;;;;23.90;99941.00;;;;2060063;28;20220;-64
2021/07/30 04:47:52;;;;;;;4.80;2.40;;;;;23.90;99935.00;;;;2060215;28;20221;-64
2021/07/30 04:48:53;;;;;;;3.30;2.40;;;;;23.90;99935.00;;;;2060630;28;20223;-64
2021/07/30 04:49:53;;;;;;;3.40;3.07;;;;;23.90;99928.00;;;;2060636;28;20217;-64
2021/07/30 04:50:54;;;;;;;3.20;2.60;;;;;23.90;99926.00;;;;2060140;28;20210;-64
2021/07/30 04:51:54;;;;;;;3.10;2.80;;;;;23.90;99927.00;;;;2060448;28;20240;-65
2021/07/30 04:52:55;;;;;;;3.10;2.63;;;;;23.90;99928.00;;;;2059991;28;20221;-65
2021/07/30 04:53:55;;;;;;;2.97;2.30;;;;;23.90;99928.00;;;;2059705;28;20218;-64
2021/07/30 04:54:55;;;;;;;2.80;2.60;;;;;23.90;99930.00;;;;2059864;28;20270;-64
2021/07/30 04:55:56;;;;;;;3.27;2.30;;;;;23.90;99927.00;;;;2060067;28;20606;-64
2021/07/30 04:56:56;;;;;;;3.50;2.67;;;;;23.90;99930.00;;;;2060744;28;20243;-64
2021/07/30 04:57:57;;;;;;;2.67;2.37;;;;;23.90;99925.00;;;;2058960;28;20720;-64
2021/07/30 04:58:58;;;;;;;2.53;2.30;;;;;23.90;99932.00;;;;2059557;28;20227;-64
2021/07/30 04:59:59;;;;;;;3.50;2.65;;;;;23.90;99929.00;;;;2063655;28;20330;-64
2021/07/30 05:01:02;;;;;;;3.50;2.37;;;;;23.90;99927.00;;;;2059418;28;20273;-64
2021/07/30 05:02:03;;;;;;;2.65;2.45;;;;;23.90;99928.00;;;;2059845;28;20218;-64
2021/07/30 05:03:03;;;;;;;4.70;2.67;;;;;23.90;99925.00;;;;2059840;28;20215;-64